Impacts METAR Board
IDs:

KMOB - Mobile Rgnl, AL, US

Updated at: 2200 UTC 23 May 2018
Potential Impact None Slight Moderate High
Time 23/10Z 23/11Z 23/12Z 23/13Z 23/14Z 23/15Z 23/16Z 23/17Z 23/18Z 23/19Z 23/20Z 23/21Z 23/22Z
Temp72 72 74 79 83 84 85 86 85 85 86 80 78
Dewpt69 69 71 73 72 72 70 70 69 71 72 67 71
Altim30.02 30.04 30.07 30.09 30.10 30.10 30.10 30.09 30.07 30.06 30.04 30.05 30.03
VIS10 10 10 10 10 10 10 10 7 7 7 1 10
CIG-- 250 250 250 -- 20 43 35 35 100 -- 30 --
CoverCLRBKNBKNBKNSCTBKNBKNBKNBKNBKNSCTOVCSCT
FltCatVFRVFRVFRVFRVFRMVFRVFRVFRVFRVFRVFRIFRVFR
WX------------------VCTSVCTSTSRAVCTS -RA
WDir1400000020090022000
WSpd5 0 0 0 0 3 4 4 3 4 9 6 0
WGst-- -- -- -- -- -- -- -- -- -- -- -- --
Raw hourly METARs
KMOB 230956Z AUTO 14005KT 10SM CLR 22/21 A3002 RMK AO2 LTG DSNT S SLP164 T02220206
KMOB 231056Z 00000KT 10SM FEW015 SCT050 BKN250 22/21 A3004 RMK AO2 SLP170 CB DSNT E-S T02220206
KMOB 231156Z COR 00000KT 10SM FEW050 BKN250 23/22 A3007 RMK AO2 SLP180 70012 T02330217 10233 20217 53016
KMOB 231256Z 00000KT 10SM FEW050 BKN250 26/23 A3009 RMK AO2 SLP184 T02610228
KMOB 231356Z 00000KT 10SM FEW015 FEW050 SCT250 28/22 A3010 RMK AO2 SLP188 T02830222
KMOB 231456Z VRB03KT 10SM BKN020 BKN250 29/22 A3010 RMK AO2 SLP188 T02890222 51010
KMOB 231558Z 02004KT 10SM BKN043 BKN060 BKN250 29/21 A3010 RMK AO2 T02940211
KMOB 231656Z VRB04KT 10SM BKN035 BKN250 30/21 A3009 RMK AO2 LTG DSNT S SLP184 CB DSNT ALQDS T03000211
KMOB 231756Z 09003KT 7SM BKN035 BKN100 BKN250 29/21 A3007 RMK AO2 LTG DSNT SW SLP180 CB DSNT ALQDS T02940206 10311 20233 58008
KMOB 231856Z VRB04KT 7SM VCTS SCT050CB BKN100 BKN220 29/22 A3006 RMK AO2 LTG DSNT NE AND SW AND W SLP176 FRQ LTGICCCCG SE-SW TS VC SE-SW MOV LTL CB DSNT ALQDS T02940217
KMOB 231956Z 22009KT 7SM VCTS FEW040CB SCT100 SCT200 30/22 A3004 RMK AO2 LTG DSNT NW-E TSB08E23 SLP170 OCNL LTGIC E-SE TS VC E-SE MOV N CB DSNT ALQDS T03000222
KMOB 232104Z VRB06KT 1SM TSRA BKN030CB BKN044 OVC050 27/19 A3005 RMK AO2 LTG DSNT ALQDS RAB01 FRQ LTGICCG N-NE TS N-NE MOV N CB DSNT ALQDS P0001 T02670194
KMOB 232156Z 00000KT 10SM VCTS -RA SCT030CB SCT044 SCT050 26/22 A3003 RMK AO2 LTG DSNT ALQDS RAB01 TSE48 SLP168 FRQ LTGICCG N-NE TS VC N-NE MOV N CB DSNT ALQDS P0053 T02560217



Page loaded:  22:23 UTC  |   03:23 PM Pacific  |   04:23 PM Mountain  |   05:23 PM Central  |   06:23 PM Eastern

 

ADVISORIES

FORECASTS

FORECASTS

OBSERVATIONS

USER TOOLS

ABOUT US